Time;durP1;ratioP1;P1;durP2;ratioP2;P2;SDS_P1;SDS_P2;PMS_P1;PMS_P2;Temp;Humidity;BMP_temperature;BMP_pressure;BME280_temperature;BME280_humidity;BME280_pressure;Samples;Min_cycle;Max_cycle;Signal;HPM_P1;HPM_P2
2023/01/24 00:38:09;;;;;;;34.00;19.17;;;;;;;1.44;95.24;103217.47;4990376;28;20112;-63
2023/01/24 00:53:57;;;;;;;29.55;16.70;;;;;;;1.39;94.04;103208.69;4988702;28;20110;-64
2023/01/24 00:56:24;;;;;;;24.65;15.55;;;;;;;1.39;94.42;103206.09;4997197;28;20133;-64
2023/01/24 01:11:41;;;;;;;21.83;14.30;;;;;;;1.33;93.74;103207.69;4989646;28;20189;-63
2023/01/24 01:36:04;;;;;;;20.85;15.10;;;;;;;1.28;94.10;103217.97;4983715;28;20831;-63
2023/01/24 01:51:43;;;;;;;18.45;14.02;;;;;;;1.05;91.67;103227.88;4990401;28;20041;-64
2023/01/24 02:33:56;;;;;;;14.18;10.05;;;;;;;1.12;92.45;103241.84;4988760;28;20057;-64
2023/01/24 02:45:09;;;;;;;12.52;8.63;;;;;;;1.09;92.90;103234.00;4991795;28;20049;-63
2023/01/24 04:20:36;;;;;;;12.73;9.57;;;;;;;0.81;90.61;103214.31;4981320;28;20040;-64
2023/01/24 04:48:54;;;;;;;16.05;11.52;;;;;;;0.75;90.66;103204.69;4974739;28;20615;-64
2023/01/24 05:13:57;;;;;;;13.57;10.05;;;;;;;0.93;89.86;103206.81;4987182;28;20172;-64
2023/01/24 05:20:43;;;;;;;12.55;10.05;;;;;;;0.74;89.54;103203.81;4980311;28;20187;-63
2023/01/24 06:27:15;;;;;;;25.00;12.70;;;;;;;0.89;88.74;103249.09;4984374;28;20053;-64
2023/01/24 06:29:43;;;;;;;24.02;14.38;;;;;;;0.86;89.32;103255.09;4987377;28;20057;-65
2023/01/24 06:32:42;;;;;;;27.48;13.55;;;;;;;0.81;88.79;103253.22;4985220;28;20078;-63
2023/01/24 06:35:42;;;;;;;30.67;13.40;;;;;;;0.76;89.30;103251.38;4979522;28;20054;-64
2023/01/24 06:38:20;;;;;;;24.02;13.60;;;;;;;0.74;89.65;103253.09;4993596;28;20085;-62
2023/01/24 06:40:51;;;;;;;24.30;12.70;;;;;;;0.73;88.91;103260.84;4995780;28;20054;-64
2023/01/24 06:43:18;;;;;;;27.77;15.02;;;;;;;0.62;88.02;103264.88;4977223;28;20136;-63
2023/01/24 06:45:45;;;;;;;25.77;13.88;;;;;;;0.63;88.69;103266.63;4989955;28;20142;-64
2023/01/24 06:48:12;;;;;;;29.35;14.10;;;;;;;0.59;88.40;103272.59;4994516;28;20066;-63
2023/01/24 06:50:40;;;;;;;25.50;13.45;;;;;;;0.61;89.29;103271.78;5001179;28;20137;-64
2023/01/24 06:53:07;;;;;;;27.52;14.68;;;;;;;0.67;89.43;103271.03;4972449;28;20058;-63
2023/01/24 06:55:35;;;;;;;30.63;15.90;;;;;;;0.66;89.19;103274.47;4997045;28;20057;-62
2023/01/24 06:58:03;;;;;;;36.15;15.35;;;;;;;0.69;90.10;103284.94;4993841;28;20054;-63
2023/01/24 07:00:30;;;;;;;34.70;15.75;;;;;;;0.74;89.70;103276.41;4997074;28;20057;-62
2023/01/24 07:03:08;;;;;;;35.65;15.90;;;;;;;0.70;88.97;103279.78;4994310;28;20055;-62
2023/01/24 07:05:37;;;;;;;38.20;17.17;;;;;;;0.75;89.37;103290.25;4978017;28;20685;-62
2023/01/24 07:08:05;;;;;;;38.88;16.77;;;;;;;0.65;88.50;103283.97;4996908;28;20149;-62
2023/01/24 07:10:33;;;;;;;41.03;18.20;;;;;;;0.65;88.67;103290.88;4999534;28;20064;-63
2023/01/24 07:13:00;;;;;;;43.70;18.13;;;;;;;0.67;88.52;103299.56;4994586;28;20602;-63
2023/01/24 07:15:27;;;;;;;37.17;17.00;;;;;;;0.58;88.36;103297.59;4983362;28;20050;-63
2023/01/24 07:17:55;;;;;;;33.78;16.55;;;;;;;0.60;89.18;103300.25;4985165;28;20042;-64
2023/01/24 07:20:22;;;;;;;37.75;17.10;;;;;;;0.66;89.17;103310.78;5004041;28;20058;-64
2023/01/24 07:22:50;;;;;;;40.03;16.85;;;;;;;0.71;89.74;103310.03;4994532;28;20064;-64
2023/01/24 07:25:19;;;;;;;44.15;18.40;;;;;;;0.75;89.71;103311.00;4994637;28;20050;-63
2023/01/24 07:27:47;;;;;;;40.38;17.48;;;;;;;0.79;89.80;103309.38;4979365;28;20041;-64
2023/01/24 07:30:15;;;;;;;45.90;18.92;;;;;;;0.82;89.53;103306.84;4999127;28;20708;-62
2023/01/24 07:32:42;;;;;;;44.25;18.83;;;;;;;0.85;89.51;103312.09;4990891;28;20062;-63
2023/01/24 07:35:10;;;;;;;50.70;20.42;;;;;;;0.76;88.77;103316.22;4998963;28;20057;-61
2023/01/24 07:37:38;;;;;;;40.08;18.25;;;;;;;0.80;89.74;103311.97;4998527;28;20529;-62
2023/01/24 07:40:06;;;;;;;44.83;18.77;;;;;;;0.79;89.47;103306.78;4984247;28;20050;-63
2023/01/24 07:42:33;;;;;;;50.90;19.67;;;;;;;0.82;89.91;103312.03;4989321;28;20681;-62
2023/01/24 07:45:00;;;;;;;49.78;20.50;;;;;;;0.85;89.47;103315.56;4990671;28;20070;-62
2023/01/24 07:47:27;;;;;;;56.42;20.92;;;;;;;0.89;89.51;103311.34;5001860;28;20046;-62
2023/01/24 07:49:54;;;;;;;44.88;19.17;;;;;;;0.81;88.68;103306.00;5003364;28;20137;-62
2023/01/24 07:52:22;;;;;;;45.28;20.85;;;;;;;0.81;89.40;103305.06;4990636;28;20056;-62
2023/01/24 07:54:49;;;;;;;46.47;19.98;;;;;;;0.77;89.11;103309.34;4988208;28;20137;-63
2023/01/24 07:57:16;;;;;;;49.88;20.95;;;;;;;0.72;88.91;103306.63;4990883;28;20506;-62
2023/01/24 07:59:43;;;;;;;51.42;21.77;;;;;;;0.73;89.45;103312.69;4984053;28;20050;-61
2023/01/24 08:02:11;;;;;;;54.42;21.77;;;;;;;0.74;89.66;103317.03;4992147;28;20145;-64
2023/01/24 08:04:38;;;;;;;47.70;20.52;;;;;;;0.79;89.81;103312.84;4992843;28;20058;-62
2023/01/24 08:07:17;;;;;;;49.90;21.30;;;;;;;0.84;89.57;103321.59;4991361;28;20386;-62
2023/01/24 08:09:46;;;;;;;46.83;21.17;;;;;;;0.88;89.36;103327.75;4999099;28;20096;-61
2023/01/24 08:12:13;;;;;;;57.97;21.35;;;;;;;0.92;89.47;103327.84;4997571;28;20141;-60
2023/01/24 08:14:41;;;;;;;62.20;23.27;;;;;;;0.91;89.03;103333.88;4977916;28;20051;-62
2023/01/24 08:17:09;;;;;;;65.70;23.83;;;;;;;0.82;88.60;103328.47;4969521;28;20054;-62
2023/01/24 08:19:37;;;;;;;67.55;25.38;;;;;;;0.70;87.76;103329.03;4998655;28;20046;-62
2023/01/24 08:22:26;;;;;;;58.85;23.83;;;;;;;0.67;88.62;103334.13;4997336;28;20046;-63
2023/01/24 08:24:53;;;;;;;71.88;26.48;;;;;;;0.75;88.98;103332.63;5001571;28;20595;-62
2023/01/24 08:27:20;;;;;;;73.72;28.17;;;;;;;0.75;88.48;103329.16;4993502;28;20064;-62
2023/01/24 08:29:47;;;;;;;74.63;26.02;;;;;;;0.74;88.80;103330.00;4998666;28;20140;-62
2023/01/24 08:32:17;;;;;;;74.70;28.20;;;;;;;0.74;89.15;103330.88;4995806;28;20136;-62
2023/01/24 08:34:47;;;;;;;73.03;28.80;;;;;;;0.88;89.45;103331.22;4989127;28;20045;-63
2023/01/24 08:37:15;;;;;;;88.63;31.98;;;;;;;0.94;88.82;103340.84;4984517;28;20139;-63
2023/01/24 08:39:42;;;;;;;78.38;28.67;;;;;;;0.99;89.17;103332.38;4985338;28;20120;-63
2023/01/24 08:42:09;;;;;;;76.40;28.70;;;;;;;1.06;89.40;103329.91;4993129;28;20046;-61
2023/01/24 08:44:37;;;;;;;88.80;32.80;;;;;;;1.05;88.35;103331.63;4991013;28;20200;-63
2023/01/24 08:47:04;;;;;;;91.13;33.65;;;;;;;1.01;87.70;103329.78;4996730;28;20237;-61
2023/01/24 08:49:31;;;;;;;86.40;31.10;;;;;;;0.94;88.03;103327.88;4994495;28;20049;-62
2023/01/24 08:51:58;;;;;;;97.85;33.17;;;;;;;0.93;88.40;103324.41;4989896;28;20074;-62
2023/01/24 08:54:29;;;;;;;90.97;32.33;;;;;;;0.94;88.33;103327.88;4996932;28;20141;-62
2023/01/24 08:56:56;;;;;;;89.65;31.08;;;;;;;0.98;87.89;103332.31;4992402;28;20096;-63
2023/01/24 08:59:23;;;;;;;82.18;31.73;;;;;;;1.02;88.90;103329.81;4993092;28;20068;-63
2023/01/24 09:01:50;;;;;;;85.75;32.92;;;;;;;1.07;88.33;103322.16;4992057;28;20505;-62
2023/01/24 09:04:18;;;;;;;96.43;32.53;;;;;;;1.08;88.68;103328.22;4997498;28;20121;-62
2023/01/24 09:06:45;;;;;;;88.85;31.85;;;;;;;1.05;88.15;103330.75;4993147;28;20137;-61
2023/01/24 09:09:12;;;;;;;87.00;33.78;;;;;;;1.04;87.93;103327.28;4995730;28;20046;-62
2023/01/24 09:11:39;;;;;;;85.53;31.83;;;;;;;1.10;88.27;103327.41;4994164;28;20065;-62
2023/01/24 09:14:06;;;;;;;84.07;31.45;;;;;;;1.13;87.91;103334.41;4991422;28;20145;-62
2023/01/24 09:16:34;;;;;;;89.50;31.98;;;;;;;1.22;87.94;103330.31;4993364;28;20060;-63
2023/01/24 09:19:01;;;;;;;84.70;32.33;;;;;;;1.21;87.60;103330.25;4981944;28;20042;-61
2023/01/24 09:21:28;;;;;;;89.55;32.08;;;;;;;1.24;88.05;103339.00;4995585;28;20141;-61
2023/01/24 09:23:55;;;;;;;90.63;33.08;;;;;;;1.25;87.79;103335.53;5001903;28;20064;-61
2023/01/24 09:26:23;;;;;;;86.75;32.10;;;;;;;1.24;86.86;103335.53;4998805;28;20133;-61
2023/01/24 09:28:50;;;;;;;84.18;32.15;;;;;;;1.17;86.83;103336.22;4988483;28;20154;-62
2023/01/24 09:31:17;;;;;;;83.85;31.88;;;;;;;1.17;87.58;103338.81;4991422;28;20046;-62
2023/01/24 09:33:44;;;;;;;86.40;32.22;;;;;;;1.09;86.43;103341.25;4987812;28;20058;-60
2023/01/24 09:36:26;;;;;;;85.07;31.38;;;;;;;1.11;86.96;103346.44;4989082;28;20056;-62
2023/01/24 09:38:53;;;;;;;82.47;32.00;;;;;;;1.20;87.74;103347.53;4988687;28;20570;-62
2023/01/24 09:41:40;;;;;;;89.25;34.42;;;;;;;1.23;87.69;103347.63;4983998;28;20526;-61
2023/01/24 09:44:15;;;;;;;89.65;30.55;;;;;;;1.31;87.50;103337.44;4972487;28;20085;-61
2023/01/24 09:46:44;;;;;;;83.22;33.05;;;;;;;1.41;87.38;103341.97;4987976;28;20176;-60
2023/01/24 09:49:38;;;;;;;85.97;31.95;;;;;;;1.42;87.22;103337.66;4989842;28;20042;-63
2023/01/24 09:52:09;;;;;;;88.00;32.17;;;;;;;1.38;87.32;103341.91;4965235;28;20470;-62
2023/01/24 09:54:51;;;;;;;78.50;30.27;;;;;;;1.41;87.29;103330.72;4980787;28;20927;-63
2023/01/24 09:57:27;;;;;;;80.03;31.33;;;;;;;1.44;87.08;103331.69;4999876;28;20056;-62
2023/01/24 09:59:58;;;;;;;88.70;33.17;;;;;;;1.40;86.91;103323.78;4993186;28;20054;-62
2023/01/24 10:02:27;;;;;;;91.85;31.00;;;;;;;1.44;87.40;103328.16;4998473;28;20509;-63
2023/01/24 10:04:54;;;;;;;83.40;31.33;;;;;;;1.46;87.44;103326.50;4991351;28;20097;-63
2023/01/24 10:07:36;;;;;;;86.45;32.33;;;;;;;1.52;86.73;103318.84;5000447;28;20138;-61
2023/01/24 10:10:15;;;;;;;81.88;32.15;;;;;;;1.56;86.78;103318.06;4998402;28;20137;-63
2023/01/24 10:13:13;;;;;;;85.68;31.58;;;;;;;1.58;86.75;103311.22;4993626;28;20414;-64
2023/01/24 10:16:11;;;;;;;84.55;32.67;;;;;;;1.63;86.80;103306.97;4994433;28;20129;-63
2023/01/24 10:18:44;;;;;;;79.93;31.85;;;;;;;1.57;85.82;103316.34;4994574;28;20133;-63
2023/01/24 10:21:17;;;;;;;77.00;30.50;;;;;;;1.57;86.30;103306.81;4994988;28;20096;-62
2023/01/24 10:23:48;;;;;;;84.95;31.50;;;;;;;1.59;86.12;103299.97;5000868;28;20061;-62
2023/01/24 10:26:19;;;;;;;79.18;29.05;;;;;;;1.61;85.76;103302.59;4982821;28;20057;-63
2023/01/24 10:28:51;;;;;;;88.20;32.03;;;;;;;1.66;86.25;103296.63;4997988;28;20660;-63
2023/01/24 10:31:36;;;;;;;75.05;29.48;;;;;;;1.66;85.53;103299.22;4992960;28;20153;-60
2023/01/24 10:34:11;;;;;;;72.82;29.63;;;;;;;1.58;84.89;103299.94;4968570;28;20100;-62
2023/01/24 10:36:52;;;;;;;79.68;29.95;;;;;;;1.60;85.93;103300.84;4979325;28;20054;-63
2023/01/24 10:39:20;;;;;;;82.10;31.08;;;;;;;1.69;86.44;103304.50;4986988;28;20068;-63
2023/01/24 10:41:47;;;;;;;76.80;29.45;;;;;;;1.70;86.07;103305.38;4988614;28;20054;-63
2023/01/24 10:44:19;;;;;;;77.53;30.27;;;;;;;1.69;86.22;103303.63;4992070;28;20060;-63
2023/01/24 10:47:02;;;;;;;77.25;28.45;;;;;;;1.68;85.40;103310.53;4979855;28;20072;-61
2023/01/24 10:49:34;;;;;;;76.22;30.60;;;;;;;1.75;86.37;103301.16;4989036;28;20046;-63
2023/01/24 10:52:10;;;;;;;81.78;29.77;;;;;;;1.72;84.65;103303.69;4990000;28;20054;-61
2023/01/24 10:54:57;;;;;;;71.35;29.17;;;;;;;1.73;85.51;103302.84;4992713;28;20046;-63
2023/01/24 10:57:38;;;;;;;68.70;27.35;;;;;;;1.83;86.45;103296.13;4981013;28;20707;-63
2023/01/24 11:00:14;;;;;;;81.45;29.52;;;;;;;1.78;84.79;103301.22;4991173;28;20145;-63
2023/01/24 11:02:42;;;;;;;74.72;30.10;;;;;;;1.78;85.54;103298.63;4992316;28;20622;-61
2023/01/24 11:05:12;;;;;;;66.57;27.40;;;;;;;1.81;85.88;103306.50;4990360;28;20137;-63
2023/01/24 11:07:58;;;;;;;72.43;28.08;;;;;;;1.92;86.95;103312.75;4997368;28;20133;-62
2023/01/24 11:10:36;;;;;;;64.38;25.65;;;;;;;2.01;85.83;103312.94;4976898;28;20406;-63
2023/01/24 11:13:27;;;;;;;64.75;26.88;;;;;;;1.89;84.14;103302.34;4996450;28;20056;-63
2023/01/24 11:16:17;;;;;;;58.30;26.35;;;;;;;1.85;84.83;103305.72;4974778;28;20038;-63
2023/01/24 11:19:01;;;;;;;57.13;25.00;;;;;;;1.84;85.25;103306.53;5000652;28;20049;-63
2023/01/24 11:21:32;;;;;;;63.55;23.83;;;;;;;1.90;85.83;103296.28;5004677;28;20141;-63
2023/01/24 11:27:49;;;;;;;58.92;25.20;;;;;;;2.12;86.36;103297.56;4992488;28;20045;-63
2023/01/24 11:30:20;;;;;;;58.28;25.60;;;;;;;2.19;nan;103288.16;4995734;28;20050;-63
2023/01/24 11:33:01;;;;;;;53.50;24.58;;;;;;;2.24;85.84;103286.50;4978679;28;20058;-63
2023/01/24 11:35:34;;;;;;;56.90;24.08;;;;;;;2.21;85.65;103289.06;4988731;28;20054;-60
2023/01/24 11:38:22;;;;;;;53.80;23.42;;;;;;;2.17;85.74;103285.53;4977570;28;20046;-63
2023/01/24 11:41:02;;;;;;;49.63;23.17;;;;;;;2.09;85.21;103281.03;4991365;28;20612;-65
2023/01/24 11:43:54;;;;;;;59.15;24.65;;;;;;;2.09;85.92;103287.13;4993184;28;20046;-62
2023/01/24 11:46:41;;;;;;;46.25;23.15;;;;;;;2.05;84.86;103274.91;4999311;28;20065;-63
2023/01/24 11:49:36;;;;;;;52.67;21.42;;;;;;;2.09;86.20;103273.25;4974827;28;20048;-63
2023/01/24 11:52:24;;;;;;;44.15;21.85;;;;;;;2.17;85.83;103276.88;4992435;28;20074;-62
2023/01/24 11:55:33;;;;;;;47.38;22.25;;;;;;;2.18;85.56;103278.63;4972593;28;20054;-62
2023/01/24 11:58:24;;;;;;;45.95;20.20;;;;;;;2.14;84.40;103282.88;4976449;28;20499;-64
2023/01/24 12:00:58;;;;;;;45.40;22.27;;;;;;;2.15;85.76;103275.94;4974164;28;20050;-62
2023/01/24 12:03:45;;;;;;;49.30;23.63;;;;;;;2.12;85.06;103270.72;4991507;28;20141;-61
2023/01/24 12:06:34;;;;;;;50.55;22.67;;;;;;;2.04;85.00;103270.56;4984896;28;20176;-61
2023/01/24 12:09:23;;;;;;;45.38;22.63;;;;;;;2.02;85.90;103267.91;4980401;28;20543;-61
2023/01/24 12:11:58;;;;;;;50.97;22.88;;;;;;;2.00;85.74;103258.34;4978512;28;20057;-63
2023/01/24 12:15:02;;;;;;;46.55;21.23;;;;;;;2.11;86.49;103263.75;4985487;28;20054;-63
2023/01/24 12:17:50;;;;;;;40.78;20.77;;;;;;;2.14;85.83;103259.47;5001574;28;20056;-63
2023/01/24 12:20:25;;;;;;;43.92;22.23;;;;;;;2.22;86.77;103251.84;4990633;28;20637;-64
2023/01/24 12:23:03;;;;;;;45.58;21.10;;;;;;;2.25;86.16;103254.47;4989823;28;20057;-63
2023/01/24 12:25:36;;;;;;;51.20;22.92;;;;;;;2.23;86.10;103259.66;4994023;28;20048;-63
2023/01/24 12:28:06;;;;;;;52.63;22.45;;;;;;;2.26;86.04;103259.72;4984028;28;20054;-64
2023/01/24 12:30:40;;;;;;;44.55;22.20;;;;;;;2.31;86.13;103249.41;4993429;28;20057;-64
2023/01/24 12:33:21;;;;;;;42.15;21.20;;;;;;;2.37;86.40;103241.69;4986675;28;20562;-64
2023/01/24 12:35:52;;;;;;;42.42;20.70;;;;;;;2.36;85.13;103239.94;4967189;28;20107;-63
2023/01/24 12:38:34;;;;;;;45.05;21.27;;;;;;;2.38;85.27;103246.03;4989506;28;20077;-62
2023/01/24 12:41:33;;;;;;;40.33;20.92;;;;;;;2.37;85.29;103249.50;4988361;28;20056;-60
2023/01/24 12:44:11;;;;;;;42.63;20.92;;;;;;;2.32;85.13;103255.47;4989377;28;20080;-61
2023/01/24 12:46:46;;;;;;;43.55;21.85;;;;;;;2.31;85.13;103261.53;4986196;28;20072;-63
2023/01/24 12:49:33;;;;;;;45.38;21.55;;;;;;;2.27;84.88;103268.38;4988531;28;20136;-61
2023/01/24 12:52:19;;;;;;;39.25;21.13;;;;;;;2.15;84.46;103260.34;4983868;28;20143;-62
2023/01/24 12:55:04;;;;;;;39.22;20.75;;;;;;;2.02;83.39;103257.53;4973933;28;20069;-62
2023/01/24 12:57:50;;;;;;;45.28;22.27;;;;;;;2.04;84.73;103260.16;4990362;28;20045;-62
2023/01/24 13:00:19;;;;;;;49.70;21.88;;;;;;;2.10;85.40;103255.06;4989565;28;20129;-62
2023/01/24 13:03:18;;;;;;;48.95;21.52;;;;;;;2.16;85.76;103259.50;4973260;28;20062;-62
2023/01/24 13:05:54;;;;;;;46.90;21.92;;;;;;;2.13;85.39;103246.47;4992338;28;20160;-63
2023/01/24 13:08:53;;;;;;;41.80;20.83;;;;;;;2.17;86.21;103248.28;4968377;28;20133;-62
2023/01/24 13:11:23;;;;;;;46.88;22.08;;;;;;;2.23;86.81;103248.38;4965258;28;20526;-61
2023/01/24 13:14:06;;;;;;;49.35;23.10;;;;;;;2.20;85.90;103253.50;4991870;28;20064;-63
2023/01/24 13:16:54;;;;;;;48.83;22.65;;;;;;;2.23;87.16;103241.47;4990785;28;20129;-63
2023/01/24 14:12:19;;;;;;;46.63;22.27;;;;;;;2.50;87.28;103219.38;4986654;28;20041;-63
2023/01/24 14:27:49;;;;;;;48.65;20.70;;;;;;;2.37;87.73;103228.69;4985925;28;20411;-63
2023/01/24 14:43:38;;;;;;;51.58;21.27;;;;;;;2.45;88.27;103226.22;4969648;28;20041;-62
2023/01/24 15:11:20;;;;;;;45.75;20.60;;;;;;;2.64;86.60;103222.19;4986379;28;20057;-63
2023/01/24 15:22:17;;;;;;;49.45;21.48;;;;;;;2.47;87.41;103204.59;4988870;28;20126;-63
2023/01/24 16:12:06;;;;;;;44.10;20.33;;;;;;;2.22;88.80;103195.53;4976572;28;20837;-62
2023/01/24 16:14:58;;;;;;;50.55;22.00;;;;;;;2.24;88.30;103191.22;4973636;28;20050;-63
2023/01/24 16:25:23;;;;;;;45.63;21.48;;;;;;;2.16;88.42;103184.13;4985419;28;20054;-63
2023/01/24 16:27:52;;;;;;;40.15;20.20;;;;;;;2.18;88.90;103188.53;4978362;28;20081;-63
2023/01/24 16:30:21;;;;;;;41.72;19.83;;;;;;;2.20;88.88;103192.00;4987451;28;20125;-62
2023/01/24 16:32:49;;;;;;;48.28;22.10;;;;;;;2.14;88.05;103191.91;4983644;28;20077;-61
2023/01/24 16:35:17;;;;;;;41.13;20.35;;;;;;;2.16;88.60;103187.66;4982887;28;20058;-62
2023/01/24 16:37:45;;;;;;;41.50;20.08;;;;;;;2.16;88.43;103184.13;4965740;28;20173;-63
2023/01/24 22:44:23;;;;;;;27.00;18.52;;;;;;;1.89;88.94;103153.38;4966599;23;20037;-63
2023/01/24 22:46:50;;;;;;;29.33;18.13;;;;;;;1.86;88.48;103146.41;5005932;28;20068;-63
2023/01/24 22:49:18;;;;;;;26.52;17.20;;;;;;;1.79;88.79;103149.72;5012770;28;20050;-62
2023/01/24 22:51:45;;;;;;;35.33;18.40;;;;;;;1.83;89.42;103148.94;5006707;28;20437;-63
2023/01/24 22:54:12;;;;;;;33.65;18.52;;;;;;;1.85;88.88;103144.66;4987490;28;20080;-61
2023/01/24 22:56:39;;;;;;;29.80;18.73;;;;;;;1.86;88.79;103150.72;5015849;28;20063;-60
2023/01/24 22:59:07;;;;;;;33.13;18.70;;;;;;;1.81;88.79;103150.66;5014038;28;20457;-62
2023/01/24 23:01:34;;;;;;;30.00;18.10;;;;;;;1.88;89.12;103156.81;5017805;28;20052;-62
2023/01/24 23:04:07;;;;;;;26.40;18.02;;;;;;;1.89;88.98;103162.06;5009960;28;20285;-62
2023/01/24 23:06:35;;;;;;;30.30;18.55;;;;;;;1.80;88.15;103158.41;5017263;28;20540;-62
2023/01/24 23:09:02;;;;;;;29.75;18.42;;;;;;;1.76;89.04;103157.50;5022724;28;20050;-64
2023/01/24 23:11:29;;;;;;;28.92;18.25;;;;;;;1.78;89.27;103155.78;5020890;28;20050;-63
2023/01/24 23:16:55;;;;;;;28.73;17.92;;;;;;;1.86;88.88;103142.94;4998166;28;20393;-62
2023/01/24 23:22:09;;;;;;;27.85;17.42;;;;;;;1.76;88.89;103131.53;5014103;28;20041;-61
2023/01/24 23:24:36;;;;;;;30.13;19.70;;;;;;;1.80;89.21;103132.44;5020898;28;20410;-62
2023/01/24 23:27:04;;;;;;;32.45;19.48;;;;;;;1.82;89.14;103133.34;5020235;28;20052;-61
2023/01/24 23:29:38;;;;;;;27.20;18.60;;;;;;;1.87;89.33;103131.69;5022203;28;20265;-63
2023/01/24 23:32:14;;;;;;;30.35;19.05;;;;;;;1.91;89.35;103136.97;5004044;28;20050;-61
2023/01/24 23:34:58;;;;;;;31.42;18.77;;;;;;;1.94;89.13;103130.97;5001658;28;20320;-62
2023/01/24 23:37:34;;;;;;;29.50;18.98;;;;;;;1.94;88.97;103134.44;5004536;28;20061;-63
2023/01/24 23:40:02;;;;;;;26.17;17.35;;;;;;;1.92;88.56;103122.25;5020694;28;20144;-62
2023/01/24 23:42:30;;;;;;;30.85;18.20;;;;;;;1.84;88.03;103119.50;4986320;28;20052;-63
2023/01/24 23:44:57;;;;;;;33.30;19.52;;;;;;;1.77;88.54;103118.56;5017082;28;20142;-63
2023/01/24 23:47:25;;;;;;;29.95;18.13;;;;;;;1.83;89.16;103122.97;5003743;28;20141;-62
2023/01/24 23:49:52;;;;;;;29.17;18.38;;;;;;;1.88;89.07;103120.44;5005777;28;20269;-62
2023/01/24 23:52:20;;;;;;;24.75;16.45;;;;;;;1.92;89.02;103114.47;4999025;28;20054;-62
2023/01/24 23:54:47;;;;;;;28.05;17.92;;;;;;;1.97;88.86;103110.22;5003961;28;20049;-64
2023/01/24 23:57:15;;;;;;;27.75;16.45;;;;;;;1.94;88.20;103105.00;5005591;28;20050;-62
2023/01/24 23:59:42;;;;;;;26.45;16.75;;;;;;;1.90;88.21;103098.88;5000012;28;20128;-62
